sensor_id;sensor_type;location;lat;lon;timestamp;P1;durP1;ratioP1;P2;durP2;ratioP2
11865;SDS011;5992;52.744;6.898;2024-01-07T00:01:10;8.00;;;6.00;;
11865;SDS011;5992;52.744;6.898;2024-01-07T00:04:35;7.90;;;6.63;;
11865;SDS011;5992;52.744;6.898;2024-01-07T00:07:35;8.90;;;6.90;;
11865;SDS011;5992;52.744;6.898;2024-01-07T00:10:52;8.17;;;5.50;;
11865;SDS011;5992;52.744;6.898;2024-01-07T00:14:04;7.95;;;6.00;;
11865;SDS011;5992;52.744;6.898;2024-01-07T00:17:16;7.00;;;6.30;;
11865;SDS011;5992;52.744;6.898;2024-01-07T00:20:16;8.85;;;5.85;;
11865;SDS011;5992;52.744;6.898;2024-01-07T00:23:28;7.90;;;6.60;;
11865;SDS011;5992;52.744;6.898;2024-01-07T00:26:30;7.33;;;6.30;;
11865;SDS011;5992;52.744;6.898;2024-01-07T00:29:54;8.90;;;5.47;;
11865;SDS011;5992;52.744;6.898;2024-01-07T00:32:55;7.20;;;5.50;;
11865;SDS011;5992;52.744;6.898;2024-01-07T00:36:07;7.25;;;6.30;;
11865;SDS011;5992;52.744;6.898;2024-01-07T00:39:08;7.60;;;6.10;;
11865;SDS011;5992;52.744;6.898;2024-01-07T00:42:22;7.65;;;6.00;;
11865;SDS011;5992;52.744;6.898;2024-01-07T00:45:34;7.20;;;5.83;;
11865;SDS011;5992;52.744;6.898;2024-01-07T00:48:46;7.70;;;5.30;;
11865;SDS011;5992;52.744;6.898;2024-01-07T00:51:46;6.10;;;5.50;;
11865;SDS011;5992;52.744;6.898;2024-01-07T00:54:58;6.83;;;5.40;;
11865;SDS011;5992;52.744;6.898;2024-01-07T00:58:00;5.15;;;4.00;;
11865;SDS011;5992;52.744;6.898;2024-01-07T01:01:23;6.17;;;5.13;;
11865;SDS011;5992;52.744;6.898;2024-01-07T01:04:38;7.67;;;5.43;;
11865;SDS011;5992;52.744;6.898;2024-01-07T01:08:01;6.37;;;4.80;;
11865;SDS011;5992;52.744;6.898;2024-01-07T01:11:01;7.07;;;5.70;;
11865;SDS011;5992;52.744;6.898;2024-01-07T01:14:27;8.10;;;5.27;;
11865;SDS011;5992;52.744;6.898;2024-01-07T01:17:41;5.25;;;4.50;;
11865;SDS011;5992;52.744;6.898;2024-01-07T01:20:53;6.90;;;4.90;;
11865;SDS011;5992;52.744;6.898;2024-01-07T01:24:05;7.03;;;5.27;;
11865;SDS011;5992;52.744;6.898;2024-01-07T01:27:17;6.77;;;4.93;;
11865;SDS011;5992;52.744;6.898;2024-01-07T01:30:31;5.83;;;3.27;;
11865;SDS011;5992;52.744;6.898;2024-01-07T01:33:55;5.37;;;4.67;;
11865;SDS011;5992;52.744;6.898;2024-01-07T01:36:55;7.65;;;5.45;;
11865;SDS011;5992;52.744;6.898;2024-01-07T01:40:08;7.75;;;5.45;;
11865;SDS011;5992;52.744;6.898;2024-01-07T01:43:08;4.60;;;3.50;;
11865;SDS011;5992;52.744;6.898;2024-01-07T01:46:22;5.13;;;4.33;;
11865;SDS011;5992;52.744;6.898;2024-01-07T01:49:34;5.07;;;4.47;;
11865;SDS011;5992;52.744;6.898;2024-01-07T01:52:58;8.23;;;4.83;;
11865;SDS011;5992;52.744;6.898;2024-01-07T01:55:59;6.80;;;4.87;;
11865;SDS011;5992;52.744;6.898;2024-01-07T01:59:23;5.60;;;4.60;;
11865;SDS011;5992;52.744;6.898;2024-01-07T02:02:48;5.83;;;4.30;;
11865;SDS011;5992;52.744;6.898;2024-01-07T02:06:13;7.80;;;5.35;;
11865;SDS011;5992;52.744;6.898;2024-01-07T02:09:25;6.20;;;5.00;;
11865;SDS011;5992;52.744;6.898;2024-01-07T02:12:38;5.60;;;4.93;;
11865;SDS011;5992;52.744;6.898;2024-01-07T02:15:50;6.10;;;5.45;;
11865;SDS011;5992;52.744;6.898;2024-01-07T02:19:03;8.05;;;6.05;;
11865;SDS011;5992;52.744;6.898;2024-01-07T02:22:16;6.55;;;5.35;;
11865;SDS011;5992;52.744;6.898;2024-01-07T02:25:34;6.50;;;5.00;;
11865;SDS011;5992;52.744;6.898;2024-01-07T02:28:42;5.50;;;4.90;;
11865;SDS011;5992;52.744;6.898;2024-01-07T02:31:54;5.83;;;4.47;;
11865;SDS011;5992;52.744;6.898;2024-01-07T02:34:54;5.67;;;4.47;;
11865;SDS011;5992;52.744;6.898;2024-01-07T02:38:06;3.60;;;3.03;;
11865;SDS011;5992;52.744;6.898;2024-01-07T02:41:07;4.47;;;3.67;;
11865;SDS011;5992;52.744;6.898;2024-01-07T02:44:31;5.60;;;4.25;;
11865;SDS011;5992;52.744;6.898;2024-01-07T02:47:31;4.90;;;4.10;;
11865;SDS011;5992;52.744;6.898;2024-01-07T02:50:44;4.83;;;4.33;;
11865;SDS011;5992;52.744;6.898;2024-01-07T02:53:44;5.33;;;4.23;;
11865;SDS011;5992;52.744;6.898;2024-01-07T02:56:57;6.10;;;4.40;;
11865;SDS011;5992;52.744;6.898;2024-01-07T03:00:10;4.95;;;4.40;;
11865;SDS011;5992;52.744;6.898;2024-01-07T03:03:23;7.20;;;4.67;;
11865;SDS011;5992;52.744;6.898;2024-01-07T03:06:26;4.60;;;4.20;;
11865;SDS011;5992;52.744;6.898;2024-01-07T03:09:50;9.07;;;5.17;;
11865;SDS011;5992;52.744;6.898;2024-01-07T03:12:51;6.53;;;4.77;;
11865;SDS011;5992;52.744;6.898;2024-01-07T03:16:19;3.83;;;3.50;;
11865;SDS011;5992;52.744;6.898;2024-01-07T03:19:32;6.20;;;5.10;;
11865;SDS011;5992;52.744;6.898;2024-01-07T03:22:45;4.90;;;3.95;;
11865;SDS011;5992;52.744;6.898;2024-01-07T03:25:45;6.20;;;5.10;;
11865;SDS011;5992;52.744;6.898;2024-01-07T03:28:58;4.97;;;3.73;;
11865;SDS011;5992;52.744;6.898;2024-01-07T03:32:13;5.33;;;4.67;;
11865;SDS011;5992;52.744;6.898;2024-01-07T03:35:26;5.03;;;4.27;;
11865;SDS011;5992;52.744;6.898;2024-01-07T03:38:26;5.07;;;3.57;;
11865;SDS011;5992;52.744;6.898;2024-01-07T03:41:38;5.80;;;4.55;;
11865;SDS011;5992;52.744;6.898;2024-01-07T03:44:40;7.27;;;4.33;;
11865;SDS011;5992;52.744;6.898;2024-01-07T03:48:04;5.73;;;4.67;;
11865;SDS011;5992;52.744;6.898;2024-01-07T03:51:09;6.40;;;4.77;;
11865;SDS011;5992;52.744;6.898;2024-01-07T03:54:21;5.50;;;4.93;;
11865;SDS011;5992;52.744;6.898;2024-01-07T03:57:21;5.15;;;4.50;;
11865;SDS011;5992;52.744;6.898;2024-01-07T04:00:34;6.75;;;4.70;;
11865;SDS011;5992;52.744;6.898;2024-01-07T04:03:58;3.93;;;3.30;;
11865;SDS011;5992;52.744;6.898;2024-01-07T04:06:58;5.60;;;4.43;;
11865;SDS011;5992;52.744;6.898;2024-01-07T04:10:10;4.57;;;4.10;;
11865;SDS011;5992;52.744;6.898;2024-01-07T04:13:10;5.63;;;4.40;;
11865;SDS011;5992;52.744;6.898;2024-01-07T04:16:35;5.37;;;4.27;;
11865;SDS011;5992;52.744;6.898;2024-01-07T04:19:48;7.10;;;4.70;;
11865;SDS011;5992;52.744;6.898;2024-01-07T04:23:00;6.70;;;5.30;;
11865;SDS011;5992;52.744;6.898;2024-01-07T04:26:01;3.57;;;3.27;;
11865;SDS011;5992;52.744;6.898;2024-01-07T04:29:13;5.13;;;4.67;;
11865;SDS011;5992;52.744;6.898;2024-01-07T04:32:14;5.03;;;4.23;;
11865;SDS011;5992;52.744;6.898;2024-01-07T04:35:40;4.87;;;4.37;;
11865;SDS011;5992;52.744;6.898;2024-01-07T04:38:40;4.10;;;3.70;;
11865;SDS011;5992;52.744;6.898;2024-01-07T04:41:55;5.60;;;4.70;;
11865;SDS011;5992;52.744;6.898;2024-01-07T04:45:07;5.37;;;4.87;;
11865;SDS011;5992;52.744;6.898;2024-01-07T04:48:21;4.00;;;3.33;;
11865;SDS011;5992;52.744;6.898;2024-01-07T04:51:34;7.40;;;4.80;;
11865;SDS011;5992;52.744;6.898;2024-01-07T04:54:58;4.83;;;4.37;;
11865;SDS011;5992;52.744;6.898;2024-01-07T04:57:58;4.30;;;3.90;;
11865;SDS011;5992;52.744;6.898;2024-01-07T05:01:10;6.73;;;4.67;;
11865;SDS011;5992;52.744;6.898;2024-01-07T05:04:11;6.10;;;4.40;;
11865;SDS011;5992;52.744;6.898;2024-01-07T05:07:37;5.95;;;4.60;;
11865;SDS011;5992;52.744;6.898;2024-01-07T05:10:49;4.40;;;3.00;;
11865;SDS011;5992;52.744;6.898;2024-01-07T05:14:01;5.03;;;3.90;;
11865;SDS011;5992;52.744;6.898;2024-01-07T05:17:01;5.70;;;4.13;;
11865;SDS011;5992;52.744;6.898;2024-01-07T05:20:16;3.87;;;3.37;;
11865;SDS011;5992;52.744;6.898;2024-01-07T05:23:28;7.40;;;4.60;;
11865;SDS011;5992;52.744;6.898;2024-01-07T05:26:52;5.35;;;4.20;;
11865;SDS011;5992;52.744;6.898;2024-01-07T05:29:52;4.00;;;3.57;;
11865;SDS011;5992;52.744;6.898;2024-01-07T05:33:05;3.37;;;3.07;;
11865;SDS011;5992;52.744;6.898;2024-01-07T05:36:19;5.07;;;4.57;;
11865;SDS011;5992;52.744;6.898;2024-01-07T05:39:43;5.70;;;3.60;;
11865;SDS011;5992;52.744;6.898;2024-01-07T05:42:43;4.00;;;3.60;;
11865;SDS011;5992;52.744;6.898;2024-01-07T05:45:55;3.90;;;3.20;;
11865;SDS011;5992;52.744;6.898;2024-01-07T05:48:55;3.87;;;3.50;;
11865;SDS011;5992;52.744;6.898;2024-01-07T05:52:09;4.57;;;2.70;;
11865;SDS011;5992;52.744;6.898;2024-01-07T05:55:20;3.67;;;3.23;;
11865;SDS011;5992;52.744;6.898;2024-01-07T05:58:32;5.35;;;2.40;;
11865;SDS011;5992;52.744;6.898;2024-01-07T06:01:44;5.15;;;3.40;;
11865;SDS011;5992;52.744;6.898;2024-01-07T06:04:56;2.60;;;2.40;;
11865;SDS011;5992;52.744;6.898;2024-01-07T06:07:58;2.27;;;1.77;;
11865;SDS011;5992;52.744;6.898;2024-01-07T06:11:22;2.73;;;2.50;;
11865;SDS011;5992;52.744;6.898;2024-01-07T06:14:22;3.13;;;1.97;;
11865;SDS011;5992;52.744;6.898;2024-01-07T06:17:34;2.30;;;2.10;;
11865;SDS011;5992;52.744;6.898;2024-01-07T06:20:34;2.30;;;2.10;;
11865;SDS011;5992;52.744;6.898;2024-01-07T06:23:48;3.87;;;2.00;;
11865;SDS011;5992;52.744;6.898;2024-01-07T06:26:59;1.60;;;1.50;;
11865;SDS011;5992;52.744;6.898;2024-01-07T06:30:12;3.10;;;2.20;;
11865;SDS011;5992;52.744;6.898;2024-01-07T06:33:12;3.17;;;2.53;;
11865;SDS011;5992;52.744;6.898;2024-01-07T06:36:25;1.80;;;1.70;;
11865;SDS011;5992;52.744;6.898;2024-01-07T06:39:39;2.60;;;1.80;;
11865;SDS011;5992;52.744;6.898;2024-01-07T06:43:04;3.50;;;2.30;;
11865;SDS011;5992;52.744;6.898;2024-01-07T06:46:04;3.45;;;2.00;;
11865;SDS011;5992;52.744;6.898;2024-01-07T06:49:16;2.33;;;2.13;;
11865;SDS011;5992;52.744;6.898;2024-01-07T06:52:16;1.67;;;1.40;;
11865;SDS011;5992;52.744;6.898;2024-01-07T06:55:30;1.70;;;1.60;;
11865;SDS011;5992;52.744;6.898;2024-01-07T06:58:43;1.70;;;1.60;;
11865;SDS011;5992;52.744;6.898;2024-01-07T07:02:07;2.93;;;1.57;;
11865;SDS011;5992;52.744;6.898;2024-01-07T07:05:07;3.10;;;2.00;;
11865;SDS011;5992;52.744;6.898;2024-01-07T07:08:20;1.50;;;1.40;;
11865;SDS011;5992;52.744;6.898;2024-01-07T07:11:22;3.60;;;1.60;;
11865;SDS011;5992;52.744;6.898;2024-01-07T07:14:46;1.77;;;1.67;;
11865;SDS011;5992;52.744;6.898;2024-01-07T07:17:46;2.60;;;1.70;;
11865;SDS011;5992;52.744;6.898;2024-01-07T07:20:58;1.50;;;1.40;;
11865;SDS011;5992;52.744;6.898;2024-01-07T07:24:10;1.60;;;1.50;;
11865;SDS011;5992;52.744;6.898;2024-01-07T07:27:24;2.15;;;1.50;;
11865;SDS011;5992;52.744;6.898;2024-01-07T07:30:38;1.50;;;1.40;;
11865;SDS011;5992;52.744;6.898;2024-01-07T07:33:49;2.17;;;1.23;;
11865;SDS011;5992;52.744;6.898;2024-01-07T07:36:50;1.50;;;1.23;;
11865;SDS011;5992;52.744;6.898;2024-01-07T07:40:02;1.50;;;1.40;;
11865;SDS011;5992;52.744;6.898;2024-01-07T07:43:04;1.95;;;1.40;;
11865;SDS011;5992;52.744;6.898;2024-01-07T07:46:29;1.40;;;1.30;;
11865;SDS011;5992;52.744;6.898;2024-01-07T07:49:29;1.67;;;1.40;;
11865;SDS011;5992;52.744;6.898;2024-01-07T07:52:41;2.00;;;1.20;;
11865;SDS011;5992;52.744;6.898;2024-01-07T07:55:53;2.40;;;1.70;;
11865;SDS011;5992;52.744;6.898;2024-01-07T07:59:06;2.80;;;1.80;;
11865;SDS011;5992;52.744;6.898;2024-01-07T08:02:19;1.30;;;1.20;;
11865;SDS011;5992;52.744;6.898;2024-01-07T08:05:31;2.23;;;1.10;;
11865;SDS011;5992;52.744;6.898;2024-01-07T08:08:46;1.50;;;1.40;;
11865;SDS011;5992;52.744;6.898;2024-01-07T08:11:58;1.87;;;1.50;;
11865;SDS011;5992;52.744;6.898;2024-01-07T08:14:59;1.60;;;1.20;;
11865;SDS011;5992;52.744;6.898;2024-01-07T08:18:24;1.50;;;1.00;;
11865;SDS011;5992;52.744;6.898;2024-01-07T08:21:25;2.17;;;1.30;;
11865;SDS011;5992;52.744;6.898;2024-01-07T08:24:38;1.13;;;1.03;;
11865;SDS011;5992;52.744;6.898;2024-01-07T08:27:38;1.20;;;1.10;;
11865;SDS011;5992;52.744;6.898;2024-01-07T08:31:03;1.37;;;1.10;;
11865;SDS011;5992;52.744;6.898;2024-01-07T08:34:16;1.20;;;1.10;;
11865;SDS011;5992;52.744;6.898;2024-01-07T08:37:29;1.07;;;1.07;;
11865;SDS011;5992;52.744;6.898;2024-01-07T08:40:29;1.35;;;1.35;;
11865;SDS011;5992;52.744;6.898;2024-01-07T08:43:28;1.47;;;1.27;;
11865;SDS011;5992;52.744;6.898;2024-01-07T08:46:41;1.73;;;1.57;;
11865;SDS011;5992;52.744;6.898;2024-01-07T08:49:54;1.27;;;1.20;;
11865;SDS011;5992;52.744;6.898;2024-01-07T08:53:06;3.60;;;1.23;;
11865;SDS011;5992;52.744;6.898;2024-01-07T08:56:06;1.90;;;1.30;;
11865;SDS011;5992;52.744;6.898;2024-01-07T08:59:31;2.00;;;1.03;;
11865;SDS011;5992;52.744;6.898;2024-01-07T09:02:32;1.50;;;1.20;;
11865;SDS011;5992;52.744;6.898;2024-01-07T09:05:58;1.30;;;1.20;;
11865;SDS011;5992;52.744;6.898;2024-01-07T09:08:58;1.17;;;1.10;;
11865;SDS011;5992;52.744;6.898;2024-01-07T09:12:10;4.33;;;1.37;;
11865;SDS011;5992;52.744;6.898;2024-01-07T09:15:10;2.53;;;1.20;;
11865;SDS011;5992;52.744;6.898;2024-01-07T09:18:23;2.23;;;1.03;;
11865;SDS011;5992;52.744;6.898;2024-01-07T09:21:48;1.67;;;1.47;;
11865;SDS011;5992;52.744;6.898;2024-01-07T09:25:01;1.37;;;1.20;;
11865;SDS011;5992;52.744;6.898;2024-01-07T09:28:13;1.20;;;1.10;;
11865;SDS011;5992;52.744;6.898;2024-01-07T09:31:25;1.77;;;1.23;;
11865;SDS011;5992;52.744;6.898;2024-01-07T09:34:26;2.30;;;1.20;;
11865;SDS011;5992;52.744;6.898;2024-01-07T09:37:51;1.80;;;1.30;;
11865;SDS011;5992;52.744;6.898;2024-01-07T09:40:51;3.03;;;1.63;;
11865;SDS011;5992;52.744;6.898;2024-01-07T09:44:15;1.30;;;1.20;;
11865;SDS011;5992;52.744;6.898;2024-01-07T09:47:27;3.00;;;1.20;;
11865;SDS011;5992;52.744;6.898;2024-01-07T09:50:41;1.43;;;1.17;;
11865;SDS011;5992;52.744;6.898;2024-01-07T09:53:58;1.27;;;1.10;;
11865;SDS011;5992;52.744;6.898;2024-01-07T09:57:19;1.50;;;1.40;;
11865;SDS011;5992;52.744;6.898;2024-01-07T10:00:21;1.85;;;1.30;;
11865;SDS011;5992;52.744;6.898;2024-01-07T10:03:33;4.05;;;2.25;;
11865;SDS011;5992;52.744;6.898;2024-01-07T10:06:34;1.83;;;1.33;;
11865;SDS011;5992;52.744;6.898;2024-01-07T10:10:09;5.30;;;1.20;;
11865;SDS011;5992;52.744;6.898;2024-01-07T10:13:21;1.63;;;1.30;;
11865;SDS011;5992;52.744;6.898;2024-01-07T10:16:45;2.63;;;1.30;;
11865;SDS011;5992;52.744;6.898;2024-01-07T10:19:46;1.07;;;1.00;;
11865;SDS011;5992;52.744;6.898;2024-01-07T10:22:59;1.90;;;0.97;;
11865;SDS011;5992;52.744;6.898;2024-01-07T10:26:11;1.55;;;1.45;;
11865;SDS011;5992;52.744;6.898;2024-01-07T10:29:23;4.15;;;1.15;;
11865;SDS011;5992;52.744;6.898;2024-01-07T10:32:23;3.77;;;1.70;;
11865;SDS011;5992;52.744;6.898;2024-01-07T10:35:37;2.70;;;1.27;;
11865;SDS011;5992;52.744;6.898;2024-01-07T10:38:49;1.67;;;0.90;;
11865;SDS011;5992;52.744;6.898;2024-01-07T10:42:16;0.90;;;0.90;;
11865;SDS011;5992;52.744;6.898;2024-01-07T10:45:28;1.03;;;1.03;;
11865;SDS011;5992;52.744;6.898;2024-01-07T10:48:54;2.13;;;1.07;;
11865;SDS011;5992;52.744;6.898;2024-01-07T10:52:06;0.90;;;0.90;;
11865;SDS011;5992;52.744;6.898;2024-01-07T10:55:32;0.90;;;0.90;;
11865;SDS011;5992;52.744;6.898;2024-01-07T10:58:43;1.03;;;1.00;;
11865;SDS011;5992;52.744;6.898;2024-01-07T11:02:07;0.97;;;0.97;;
11865;SDS011;5992;52.744;6.898;2024-01-07T11:05:22;1.00;;;1.00;;
11865;SDS011;5992;52.744;6.898;2024-01-07T11:08:46;1.55;;;1.10;;
11865;SDS011;5992;52.744;6.898;2024-01-07T11:11:59;2.23;;;1.23;;
11865;SDS011;5992;52.744;6.898;2024-01-07T11:18:45;1.10;;;1.00;;
11865;SDS011;5992;52.744;6.898;2024-01-07T11:25:29;0.90;;;0.90;;
11865;SDS011;5992;52.744;6.898;2024-01-07T11:28:55;1.77;;;1.20;;
11865;SDS011;5992;52.744;6.898;2024-01-07T11:32:07;2.80;;;1.67;;
11865;SDS011;5992;52.744;6.898;2024-01-07T11:35:21;0.70;;;0.70;;
11865;SDS011;5992;52.744;6.898;2024-01-07T11:38:33;1.20;;;1.10;;
11865;SDS011;5992;52.744;6.898;2024-01-07T11:41:57;0.90;;;0.90;;
11865;SDS011;5992;52.744;6.898;2024-01-07T11:45:11;1.23;;;1.07;;
11865;SDS011;5992;52.744;6.898;2024-01-07T11:48:35;3.10;;;1.23;;
11865;SDS011;5992;52.744;6.898;2024-01-07T11:51:35;2.83;;;1.03;;
11865;SDS011;5992;52.744;6.898;2024-01-07T11:54:47;1.30;;;1.00;;
11865;SDS011;5992;52.744;6.898;2024-01-07T11:58:00;0.83;;;0.83;;
11865;SDS011;5992;52.744;6.898;2024-01-07T12:01:26;1.10;;;1.00;;
11865;SDS011;5992;52.744;6.898;2024-01-07T12:04:50;1.30;;;1.20;;
11865;SDS011;5992;52.744;6.898;2024-01-07T12:07:50;2.87;;;1.30;;
11865;SDS011;5992;52.744;6.898;2024-01-07T12:11:02;1.35;;;1.25;;
11865;SDS011;5992;52.744;6.898;2024-01-07T12:14:14;1.50;;;1.20;;
11865;SDS011;5992;52.744;6.898;2024-01-07T12:17:40;2.03;;;1.53;;
11865;SDS011;5992;52.744;6.898;2024-01-07T12:20:55;2.10;;;1.03;;
11865;SDS011;5992;52.744;6.898;2024-01-07T12:24:24;1.37;;;0.83;;
11865;SDS011;5992;52.744;6.898;2024-01-07T12:27:35;1.50;;;1.25;;
11865;SDS011;5992;52.744;6.898;2024-01-07T12:30:47;5.45;;;1.10;;
11865;SDS011;5992;52.744;6.898;2024-01-07T12:34:01;3.23;;;1.83;;
11865;SDS011;5992;52.744;6.898;2024-01-07T12:37:26;1.83;;;1.73;;
11865;SDS011;5992;52.744;6.898;2024-01-07T12:40:41;2.90;;;1.07;;
11865;SDS011;5992;52.744;6.898;2024-01-07T12:43:52;2.65;;;1.45;;
11865;SDS011;5992;52.744;6.898;2024-01-07T12:46:52;3.40;;;1.70;;
11865;SDS011;5992;52.744;6.898;2024-01-07T12:50:07;2.00;;;1.90;;
11865;SDS011;5992;52.744;6.898;2024-01-07T12:53:19;2.10;;;1.90;;
11865;SDS011;5992;52.744;6.898;2024-01-07T12:56:31;3.10;;;2.10;;
11865;SDS011;5992;52.744;6.898;2024-01-07T12:59:31;2.67;;;1.70;;
11865;SDS011;5992;52.744;6.898;2024-01-07T13:02:44;2.65;;;1.15;;
11865;SDS011;5992;52.744;6.898;2024-01-07T13:05:57;1.50;;;1.30;;
11865;SDS011;5992;52.744;6.898;2024-01-07T13:09:22;3.40;;;1.97;;
11865;SDS011;5992;52.744;6.898;2024-01-07T13:12:22;2.20;;;1.57;;
11865;SDS011;5992;52.744;6.898;2024-01-07T13:15:34;1.53;;;1.47;;
11865;SDS011;5992;52.744;6.898;2024-01-07T13:18:34;3.17;;;2.00;;
11865;SDS011;5992;52.744;6.898;2024-01-07T13:21:47;5.00;;;2.47;;
11865;SDS011;5992;52.744;6.898;2024-01-07T13:25:00;1.73;;;1.63;;
11865;SDS011;5992;52.744;6.898;2024-01-07T13:28:12;3.25;;;2.70;;
11865;SDS011;5992;52.744;6.898;2024-01-07T13:31:12;1.57;;;1.47;;
11865;SDS011;5992;52.744;6.898;2024-01-07T13:34:25;6.27;;;2.57;;
11865;SDS011;5992;52.744;6.898;2024-01-07T13:37:26;2.57;;;2.00;;
11865;SDS011;5992;52.744;6.898;2024-01-07T13:40:53;2.93;;;1.77;;
11865;SDS011;5992;52.744;6.898;2024-01-07T13:43:53;2.05;;;1.85;;
11865;SDS011;5992;52.744;6.898;2024-01-07T13:47:06;1.97;;;1.77;;
11865;SDS011;5992;52.744;6.898;2024-01-07T13:50:06;3.15;;;1.95;;
11865;SDS011;5992;52.744;6.898;2024-01-07T13:53:20;2.50;;;2.30;;
11865;SDS011;5992;52.744;6.898;2024-01-07T13:56:33;3.37;;;2.20;;
11865;SDS011;5992;52.744;6.898;2024-01-07T13:59:46;3.47;;;2.60;;
11865;SDS011;5992;52.744;6.898;2024-01-07T14:02:58;2.70;;;2.17;;
11865;SDS011;5992;52.744;6.898;2024-01-07T14:05:58;1.90;;;1.80;;
11865;SDS011;5992;52.744;6.898;2024-01-07T14:09:24;2.40;;;2.20;;
11865;SDS011;5992;52.744;6.898;2024-01-07T14:12:37;4.03;;;2.20;;
11865;SDS011;5992;52.744;6.898;2024-01-07T14:15:50;4.27;;;2.03;;
11865;SDS011;5992;52.744;6.898;2024-01-07T14:18:50;2.00;;;1.90;;
11865;SDS011;5992;52.744;6.898;2024-01-07T14:22:14;2.95;;;2.20;;
11865;SDS011;5992;52.744;6.898;2024-01-07T14:25:15;2.43;;;2.20;;
11865;SDS011;5992;52.744;6.898;2024-01-07T14:28:39;2.40;;;2.20;;
11865;SDS011;5992;52.744;6.898;2024-01-07T14:31:39;2.85;;;2.40;;
11865;SDS011;5992;52.744;6.898;2024-01-07T14:34:51;3.33;;;2.20;;
11865;SDS011;5992;52.744;6.898;2024-01-07T14:37:51;2.40;;;2.13;;
11865;SDS011;5992;52.744;6.898;2024-01-07T14:41:04;2.40;;;2.20;;
11865;SDS011;5992;52.744;6.898;2024-01-07T14:44:17;2.10;;;2.00;;
11865;SDS011;5992;52.744;6.898;2024-01-07T14:47:41;4.07;;;2.67;;
11865;SDS011;5992;52.744;6.898;2024-01-07T14:50:41;4.15;;;2.30;;
11865;SDS011;5992;52.744;6.898;2024-01-07T14:53:53;3.67;;;2.57;;
11865;SDS011;5992;52.744;6.898;2024-01-07T14:56:55;2.87;;;2.43;;
11865;SDS011;5992;52.744;6.898;2024-01-07T15:00:24;3.87;;;2.40;;
11865;SDS011;5992;52.744;6.898;2024-01-07T15:03:25;3.03;;;2.30;;
11865;SDS011;5992;52.744;6.898;2024-01-07T15:06:40;4.35;;;2.65;;
11865;SDS011;5992;52.744;6.898;2024-01-07T15:09:52;4.05;;;2.60;;
11865;SDS011;5992;52.744;6.898;2024-01-07T15:13:05;5.25;;;2.85;;
11865;SDS011;5992;52.744;6.898;2024-01-07T15:16:18;2.23;;;2.13;;
11865;SDS011;5992;52.744;6.898;2024-01-07T15:19:30;2.83;;;2.10;;
11865;SDS011;5992;52.744;6.898;2024-01-07T15:22:30;3.33;;;2.80;;
11865;SDS011;5992;52.744;6.898;2024-01-07T15:25:42;2.25;;;2.05;;
11865;SDS011;5992;52.744;6.898;2024-01-07T15:28:55;7.90;;;3.27;;
11865;SDS011;5992;52.744;6.898;2024-01-07T15:32:20;4.90;;;3.50;;
11865;SDS011;5992;52.744;6.898;2024-01-07T15:35:35;3.25;;;2.30;;
11865;SDS011;5992;52.744;6.898;2024-01-07T15:38:59;4.53;;;2.80;;
11865;SDS011;5992;52.744;6.898;2024-01-07T15:41:59;3.80;;;3.10;;
11865;SDS011;5992;52.744;6.898;2024-01-07T15:45:24;3.00;;;2.15;;
11865;SDS011;5992;52.744;6.898;2024-01-07T15:48:37;4.47;;;2.77;;
11865;SDS011;5992;52.744;6.898;2024-01-07T15:51:50;4.23;;;3.07;;
11865;SDS011;5992;52.744;6.898;2024-01-07T15:54:50;3.30;;;2.87;;
11865;SDS011;5992;52.744;6.898;2024-01-07T15:58:02;4.60;;;3.00;;
11865;SDS011;5992;52.744;6.898;2024-01-07T16:01:06;2.77;;;2.47;;
11865;SDS011;5992;52.744;6.898;2024-01-07T16:04:29;5.80;;;3.20;;
11865;SDS011;5992;52.744;6.898;2024-01-07T16:07:29;3.15;;;2.40;;
11865;SDS011;5992;52.744;6.898;2024-01-07T16:10:41;3.30;;;2.73;;
11865;SDS011;5992;52.744;6.898;2024-01-07T16:13:53;6.63;;;3.30;;
11865;SDS011;5992;52.744;6.898;2024-01-07T16:17:07;4.03;;;2.93;;
11865;SDS011;5992;52.744;6.898;2024-01-07T16:20:19;5.27;;;2.50;;
11865;SDS011;5992;52.744;6.898;2024-01-07T16:23:31;3.15;;;2.85;;
11865;SDS011;5992;52.744;6.898;2024-01-07T16:26:31;3.10;;;2.35;;
11865;SDS011;5992;52.744;6.898;2024-01-07T16:29:43;2.90;;;2.33;;
11865;SDS011;5992;52.744;6.898;2024-01-07T16:32:45;2.67;;;2.47;;
11865;SDS011;5992;52.744;6.898;2024-01-07T16:36:09;2.83;;;2.53;;
11865;SDS011;5992;52.744;6.898;2024-01-07T16:39:09;2.63;;;2.40;;
11865;SDS011;5992;52.744;6.898;2024-01-07T16:42:21;2.53;;;2.33;;
11865;SDS011;5992;52.744;6.898;2024-01-07T16:45:21;3.95;;;2.60;;
11865;SDS011;5992;52.744;6.898;2024-01-07T16:48:36;3.23;;;2.60;;
11865;SDS011;5992;52.744;6.898;2024-01-07T16:51:48;2.75;;;2.55;;
11865;SDS011;5992;52.744;6.898;2024-01-07T16:55:00;2.40;;;2.20;;
11865;SDS011;5992;52.744;6.898;2024-01-07T16:58:00;5.27;;;3.10;;
11865;SDS011;5992;52.744;6.898;2024-01-07T17:01:12;5.20;;;2.20;;
11865;SDS011;5992;52.744;6.898;2024-01-07T17:04:27;2.80;;;2.10;;
11865;SDS011;5992;52.744;6.898;2024-01-07T17:07:51;2.50;;;2.10;;
11865;SDS011;5992;52.744;6.898;2024-01-07T17:10:51;2.60;;;2.30;;
11865;SDS011;5992;52.744;6.898;2024-01-07T17:14:03;4.13;;;2.40;;
11865;SDS011;5992;52.744;6.898;2024-01-07T17:17:03;3.50;;;2.47;;
11865;SDS011;5992;52.744;6.898;2024-01-07T17:20:29;3.20;;;2.70;;
11865;SDS011;5992;52.744;6.898;2024-01-07T17:23:41;2.30;;;2.00;;
11865;SDS011;5992;52.744;6.898;2024-01-07T17:26:56;4.95;;;2.70;;
11865;SDS011;5992;52.744;6.898;2024-01-07T17:29:56;4.10;;;2.55;;
11865;SDS011;5992;52.744;6.898;2024-01-07T17:33:08;3.35;;;2.45;;
11865;SDS011;5992;52.744;6.898;2024-01-07T17:36:22;3.23;;;2.37;;
11865;SDS011;5992;52.744;6.898;2024-01-07T17:39:46;3.27;;;2.20;;
11865;SDS011;5992;52.744;6.898;2024-01-07T17:42:46;2.93;;;2.63;;
11865;SDS011;5992;52.744;6.898;2024-01-07T17:45:58;1.85;;;1.50;;
11865;SDS011;5992;52.744;6.898;2024-01-07T17:48:58;4.15;;;2.45;;
11865;SDS011;5992;52.744;6.898;2024-01-07T17:52:13;2.65;;;2.30;;
11865;SDS011;5992;52.744;6.898;2024-01-07T17:55:25;3.20;;;2.90;;
11865;SDS011;5992;52.744;6.898;2024-01-07T17:58:38;2.50;;;2.30;;
11865;SDS011;5992;52.744;6.898;2024-01-07T18:02:03;5.03;;;2.43;;
11865;SDS011;5992;52.744;6.898;2024-01-07T18:05:16;4.63;;;2.50;;
11865;SDS011;5992;52.744;6.898;2024-01-07T18:08:19;2.73;;;2.37;;
11865;SDS011;5992;52.744;6.898;2024-01-07T18:11:44;4.00;;;2.45;;
11865;SDS011;5992;52.744;6.898;2024-01-07T18:14:56;1.50;;;1.40;;
11865;SDS011;5992;52.744;6.898;2024-01-07T18:18:08;3.10;;;2.50;;
11865;SDS011;5992;52.744;6.898;2024-01-07T18:21:10;2.33;;;2.13;;
11865;SDS011;5992;52.744;6.898;2024-01-07T18:24:34;2.40;;;2.03;;
11865;SDS011;5992;52.744;6.898;2024-01-07T18:27:47;3.10;;;2.07;;
11865;SDS011;5992;52.744;6.898;2024-01-07T18:31:00;3.35;;;2.15;;
11865;SDS011;5992;52.744;6.898;2024-01-07T18:34:12;1.85;;;1.75;;
11865;SDS011;5992;52.744;6.898;2024-01-07T18:37:24;2.43;;;2.23;;
11865;SDS011;5992;52.744;6.898;2024-01-07T18:40:25;4.23;;;2.80;;
11865;SDS011;5992;52.744;6.898;2024-01-07T18:43:50;4.15;;;2.95;;
11865;SDS011;5992;52.744;6.898;2024-01-07T18:47:02;1.90;;;1.80;;
11865;SDS011;5992;52.744;6.898;2024-01-07T18:50:14;2.30;;;2.10;;
11865;SDS011;5992;52.744;6.898;2024-01-07T18:53:14;3.03;;;2.47;;
11865;SDS011;5992;52.744;6.898;2024-01-07T18:56:27;3.40;;;2.50;;
11865;SDS011;5992;52.744;6.898;2024-01-07T18:59:40;1.70;;;1.43;;
11865;SDS011;5992;52.744;6.898;2024-01-07T19:02:52;3.67;;;3.33;;
11865;SDS011;5992;52.744;6.898;2024-01-07T19:05:52;4.80;;;3.40;;
11865;SDS011;5992;52.744;6.898;2024-01-07T19:09:04;2.80;;;2.60;;
11865;SDS011;5992;52.744;6.898;2024-01-07T19:12:17;3.47;;;3.17;;
11865;SDS011;5992;52.744;6.898;2024-01-07T19:15:42;3.23;;;2.63;;
11865;SDS011;5992;52.744;6.898;2024-01-07T19:18:42;7.67;;;2.80;;
11865;SDS011;5992;52.744;6.898;2024-01-07T19:21:54;2.93;;;2.43;;
11865;SDS011;5992;52.744;6.898;2024-01-07T19:24:55;3.70;;;2.75;;
11865;SDS011;5992;52.744;6.898;2024-01-07T19:28:08;2.50;;;2.23;;
11865;SDS011;5992;52.744;6.898;2024-01-07T19:31:21;1.90;;;1.80;;
11865;SDS011;5992;52.744;6.898;2024-01-07T19:34:46;3.20;;;2.65;;
11865;SDS011;5992;52.744;6.898;2024-01-07T19:37:46;3.37;;;2.83;;